Benetusser, Spain
Current Conditions -  °F | °C
As of 12:00 AM on Friday 24 Oct 2014 (Local Time) from LEVC Reporting Station
Clear Clear  
Wind Chill: 66°   Ceiling: Unl
Heat Index: 66°   Visibility: 6mi
Dew Point: 50°   Wind: 5mph
Humidity: 56%   Direction: 290°WNW
Pressure: 30.03"   Gusts: NA
Location:  39.42°N, 0.4°W
Report Text: LEVC 232200Z 29004KT CAVOK 19/10 Q1017 NOSIG
Loading
Personal Weather Stations






























Interactive Weather Map
Tropical Storm Tracking
New forecast layout! Learn more

10-Day Weather Forecast

Advertisements
Track Severe Weather on mobile